sensor_id;sensor_type;location;lat;lon;timestamp;pressure;altitude;pressure_sealevel;temperature;humidity
65784;BME280;52532;53.358;-1.488;2022-07-25T00:03:00;99625.23;;;21.16;58.70
65784;BME280;52532;53.358;-1.488;2022-07-25T00:06:04;99619.07;;;21.85;56.70
65784;BME280;52532;53.358;-1.488;2022-07-25T00:09:07;99615.57;;;21.46;57.65
65784;BME280;52532;53.358;-1.488;2022-07-25T00:12:10;99615.69;;;20.76;58.85
65784;BME280;52532;53.358;-1.488;2022-07-25T00:18:04;99605.80;;;19.54;61.16
65784;BME280;52532;53.358;-1.488;2022-07-25T00:21:07;99602.87;;;20.33;60.05
65784;BME280;52532;53.358;-1.488;2022-07-25T00:24:10;99599.97;;;20.61;58.33
65784;BME280;52532;53.358;-1.488;2022-07-25T00:27:13;99592.58;;;21.78;55.96
65784;BME280;52532;53.358;-1.488;2022-07-25T00:30:16;99602.47;;;20.50;58.64
65784;BME280;52532;53.358;-1.488;2022-07-25T00:33:19;99599.62;;;21.88;55.54
65784;BME280;52532;53.358;-1.488;2022-07-25T00:36:22;99597.17;;;19.85;61.77
65784;BME280;52532;53.358;-1.488;2022-07-25T00:39:25;99600.96;;;19.68;62.97
65784;BME280;52532;53.358;-1.488;2022-07-25T00:42:28;99605.40;;;18.20;65.92
65784;BME280;52532;53.358;-1.488;2022-07-25T00:45:31;99599.12;;;19.58;64.32
65784;BME280;52532;53.358;-1.488;2022-07-25T00:48:34;99602.55;;;19.38;66.19
65784;BME280;52532;53.358;-1.488;2022-07-25T00:51:37;99596.61;;;20.57;63.01
65784;BME280;52532;53.358;-1.488;2022-07-25T00:54:40;99597.43;;;20.82;61.29
65784;BME280;52532;53.358;-1.488;2022-07-25T00:57:43;99602.05;;;19.32;63.03
65784;BME280;52532;53.358;-1.488;2022-07-25T01:00:46;99597.47;;;19.05;64.63
65784;BME280;52532;53.358;-1.488;2022-07-25T01:03:49;99594.86;;;20.42;62.58
65784;BME280;52532;53.358;-1.488;2022-07-25T01:06:52;99586.67;;;20.75;61.27
65784;BME280;52532;53.358;-1.488;2022-07-25T01:09:56;99572.54;;;20.04;62.33
65784;BME280;52532;53.358;-1.488;2022-07-25T01:12:59;99584.75;;;19.15;66.29
65784;BME280;52532;53.358;-1.488;2022-07-25T01:16:02;99574.78;;;19.92;62.61
65784;BME280;52532;53.358;-1.488;2022-07-25T01:19:06;99582.02;;;19.85;62.80
65784;BME280;52532;53.358;-1.488;2022-07-25T01:22:09;99590.35;;;17.54;70.32
65784;BME280;52532;53.358;-1.488;2022-07-25T01:25:14;99590.79;;;18.27;66.91
65784;BME280;52532;53.358;-1.488;2022-07-25T01:28:17;99589.68;;;19.13;66.62
65784;BME280;52532;53.358;-1.488;2022-07-25T01:31:20;99584.77;;;20.29;62.18
65784;BME280;52532;53.358;-1.488;2022-07-25T01:34:23;99588.22;;;20.72;60.97
65784;BME280;52532;53.358;-1.488;2022-07-25T01:37:26;99584.73;;;20.89;59.77
65784;BME280;52532;53.358;-1.488;2022-07-25T01:40:29;99582.85;;;20.10;61.43
65784;BME280;52532;53.358;-1.488;2022-07-25T01:43:32;99584.18;;;19.18;62.20
65784;BME280;52532;53.358;-1.488;2022-07-25T01:46:35;99582.60;;;20.85;59.47
65784;BME280;52532;53.358;-1.488;2022-07-25T01:49:38;99588.22;;;16.59;70.81
65784;BME280;52532;53.358;-1.488;2022-07-25T01:52:41;99592.36;;;18.45;65.56
65784;BME280;52532;53.358;-1.488;2022-07-25T01:55:46;99588.57;;;19.25;63.94
65784;BME280;52532;53.358;-1.488;2022-07-25T01:58:50;99589.48;;;18.55;64.85
65784;BME280;52532;53.358;-1.488;2022-07-25T02:01:53;99583.37;;;20.01;60.62
65784;BME280;52532;53.358;-1.488;2022-07-25T02:04:56;99580.44;;;20.88;59.75
65784;BME280;52532;53.358;-1.488;2022-07-25T02:07:59;99574.57;;;18.84;63.81
65784;BME280;52532;53.358;-1.488;2022-07-25T02:11:02;99567.35;;;20.43;62.20
65784;BME280;52532;53.358;-1.488;2022-07-25T02:14:05;99564.48;;;18.42;65.03
65784;BME280;52532;53.358;-1.488;2022-07-25T02:17:08;99559.83;;;18.60;65.57
65784;BME280;52532;53.358;-1.488;2022-07-25T02:20:11;99539.92;;;19.82;62.24
65784;BME280;52532;53.358;-1.488;2022-07-25T02:23:14;99526.21;;;20.63;61.30
65784;BME280;52532;53.358;-1.488;2022-07-25T02:26:17;99513.90;;;18.39;67.47
65784;BME280;52532;53.358;-1.488;2022-07-25T02:29:20;99514.81;;;19.35;64.36
65784;BME280;52532;53.358;-1.488;2022-07-25T02:32:23;99526.01;;;19.00;63.57
65784;BME280;52532;53.358;-1.488;2022-07-25T02:35:26;99531.54;;;19.54;63.40
65784;BME280;52532;53.358;-1.488;2022-07-25T02:38:29;99527.60;;;20.17;60.15
65784;BME280;52532;53.358;-1.488;2022-07-25T02:41:32;99532.74;;;18.41;65.48
65784;BME280;52532;53.358;-1.488;2022-07-25T02:44:35;99529.48;;;17.31;70.22
65784;BME280;52532;53.358;-1.488;2022-07-25T02:47:38;99527.38;;;19.47;64.32
65784;BME280;52532;53.358;-1.488;2022-07-25T02:50:40;99525.43;;;19.20;63.16
65784;BME280;52532;53.358;-1.488;2022-07-25T02:53:43;99531.73;;;19.15;64.51
65784;BME280;52532;53.358;-1.488;2022-07-25T02:56:46;99533.90;;;19.08;65.34
65784;BME280;52532;53.358;-1.488;2022-07-25T02:59:49;99532.21;;;19.58;65.09
65784;BME280;52532;53.358;-1.488;2022-07-25T03:02:52;99533.92;;;18.82;64.18
65784;BME280;52532;53.358;-1.488;2022-07-25T03:05:55;99537.02;;;18.18;65.95
65784;BME280;52532;53.358;-1.488;2022-07-25T03:08:58;99541.16;;;19.01;64.99
65784;BME280;52532;53.358;-1.488;2022-07-25T03:12:01;99542.85;;;19.56;63.01
65784;BME280;52532;53.358;-1.488;2022-07-25T03:15:05;99536.75;;;19.88;62.83
65784;BME280;52532;53.358;-1.488;2022-07-25T03:18:08;99528.40;;;20.23;60.83
65784;BME280;52532;53.358;-1.488;2022-07-25T03:21:11;99519.77;;;20.84;58.66
65784;BME280;52532;53.358;-1.488;2022-07-25T03:24:14;99516.82;;;21.11;58.82
65784;BME280;52532;53.358;-1.488;2022-07-25T03:27:18;99515.49;;;20.40;59.68
65784;BME280;52532;53.358;-1.488;2022-07-25T03:30:21;99515.96;;;20.81;58.69
65784;BME280;52532;53.358;-1.488;2022-07-25T03:33:24;99518.42;;;20.20;60.87
65784;BME280;52532;53.358;-1.488;2022-07-25T03:36:32;99512.65;;;17.27;65.08
65784;BME280;52532;53.358;-1.488;2022-07-25T03:39:35;99512.71;;;19.88;63.12
65784;BME280;52532;53.358;-1.488;2022-07-25T03:42:37;99510.96;;;20.34;61.37
65784;BME280;52532;53.358;-1.488;2022-07-25T03:45:40;99507.59;;;19.71;61.94
65784;BME280;52532;53.358;-1.488;2022-07-25T03:48:43;99508.56;;;21.17;57.90
65784;BME280;52532;53.358;-1.488;2022-07-25T03:51:46;99513.05;;;20.75;58.82
65784;BME280;52532;53.358;-1.488;2022-07-25T03:54:49;99512.58;;;19.45;59.49
65784;BME280;52532;53.358;-1.488;2022-07-25T03:57:52;99527.37;;;21.39;55.95
65784;BME280;52532;53.358;-1.488;2022-07-25T04:00:55;99529.74;;;20.91;56.54
65784;BME280;52532;53.358;-1.488;2022-07-25T04:03:58;99526.59;;;20.22;58.15
65784;BME280;52532;53.358;-1.488;2022-07-25T04:07:01;99522.67;;;18.53;61.67
65784;BME280;52532;53.358;-1.488;2022-07-25T04:10:06;99520.15;;;20.23;58.38
65784;BME280;52532;53.358;-1.488;2022-07-25T04:13:09;99526.43;;;19.91;58.15
65784;BME280;52532;53.358;-1.488;2022-07-25T04:16:13;99532.48;;;19.39;58.38
65784;BME280;52532;53.358;-1.488;2022-07-25T04:19:16;99522.87;;;18.98;59.81
65784;BME280;52532;53.358;-1.488;2022-07-25T04:22:19;99509.59;;;18.94;59.62
65784;BME280;52532;53.358;-1.488;2022-07-25T04:25:22;99508.15;;;19.77;58.89
65784;BME280;52532;53.358;-1.488;2022-07-25T04:28:25;99512.07;;;20.95;56.07
65784;BME280;52532;53.358;-1.488;2022-07-25T04:31:28;99505.35;;;19.31;57.10
65784;BME280;52532;53.358;-1.488;2022-07-25T04:34:31;99505.35;;;19.87;56.41
65784;BME280;52532;53.358;-1.488;2022-07-25T04:37:34;99505.26;;;20.71;55.69
65784;BME280;52532;53.358;-1.488;2022-07-25T04:40:39;99508.99;;;18.48;60.73
65784;BME280;52532;53.358;-1.488;2022-07-25T04:43:42;99509.16;;;18.32;62.38
65784;BME280;52532;53.358;-1.488;2022-07-25T04:46:44;99508.84;;;18.04;61.35
65784;BME280;52532;53.358;-1.488;2022-07-25T04:49:47;99511.35;;;18.04;60.78
65784;BME280;52532;53.358;-1.488;2022-07-25T04:52:50;99511.27;;;17.46;61.98
65784;BME280;52532;53.358;-1.488;2022-07-25T04:55:53;99508.75;;;17.02;64.76
65784;BME280;52532;53.358;-1.488;2022-07-25T04:58:56;99509.79;;;17.72;64.77
65784;BME280;52532;53.358;-1.488;2022-07-25T05:02:00;99507.06;;;18.33;63.51
65784;BME280;52532;53.358;-1.488;2022-07-25T05:05:04;99503.94;;;17.26;64.68
65784;BME280;52532;53.358;-1.488;2022-07-25T05:08:07;99512.98;;;18.21;60.69
65784;BME280;52532;53.358;-1.488;2022-07-25T05:11:10;99519.91;;;18.32;63.00
65784;BME280;52532;53.358;-1.488;2022-07-25T05:14:13;99521.91;;;18.01;63.01
65784;BME280;52532;53.358;-1.488;2022-07-25T05:17:16;99518.76;;;16.21;70.80
65784;BME280;52532;53.358;-1.488;2022-07-25T05:20:19;99514.64;;;17.63;65.56
65784;BME280;52532;53.358;-1.488;2022-07-25T05:23:22;99512.12;;;16.30;68.75
65784;BME280;52532;53.358;-1.488;2022-07-25T05:26:24;99510.72;;;18.66;62.83
65784;BME280;52532;53.358;-1.488;2022-07-25T05:29:27;99502.37;;;18.37;62.55
65784;BME280;52532;53.358;-1.488;2022-07-25T05:32:30;99501.60;;;18.45;61.14
65784;BME280;52532;53.358;-1.488;2022-07-25T05:35:33;99497.90;;;18.65;62.39
65784;BME280;52532;53.358;-1.488;2022-07-25T05:38:36;99497.83;;;19.34;60.38
65784;BME280;52532;53.358;-1.488;2022-07-25T05:41:39;99506.57;;;18.84;62.18
65784;BME280;52532;53.358;-1.488;2022-07-25T05:44:47;99500.06;;;18.15;65.60
65784;BME280;52532;53.358;-1.488;2022-07-25T05:47:50;99507.65;;;17.16;69.32
65784;BME280;52532;53.358;-1.488;2022-07-25T05:50:53;99511.30;;;16.56;71.57
65784;BME280;52532;53.358;-1.488;2022-07-25T05:53:55;99513.50;;;16.74;70.05
65784;BME280;52532;53.358;-1.488;2022-07-25T05:56:58;99512.30;;;17.32;68.50
65784;BME280;52532;53.358;-1.488;2022-07-25T06:00:05;99512.92;;;17.33;68.55
65784;BME280;52532;53.358;-1.488;2022-07-25T06:03:08;99515.27;;;17.38;69.31
65784;BME280;52532;53.358;-1.488;2022-07-25T06:06:11;99510.17;;;16.38;70.11
65784;BME280;52532;53.358;-1.488;2022-07-25T06:09:14;99509.37;;;17.36;68.27
65784;BME280;52532;53.358;-1.488;2022-07-25T06:12:17;99518.95;;;18.58;64.06
65784;BME280;52532;53.358;-1.488;2022-07-25T06:15:20;99519.13;;;16.57;70.09
65784;BME280;52532;53.358;-1.488;2022-07-25T06:18:23;99519.26;;;16.01;71.18
65784;BME280;52532;53.358;-1.488;2022-07-25T06:21:26;99523.26;;;15.71;73.33
65784;BME280;52532;53.358;-1.488;2022-07-25T06:24:29;99519.58;;;18.27;65.46
65784;BME280;52532;53.358;-1.488;2022-07-25T06:27:32;99524.72;;;19.08;63.58
65784;BME280;52532;53.358;-1.488;2022-07-25T06:30:36;99523.31;;;16.98;68.57
65784;BME280;52532;53.358;-1.488;2022-07-25T06:33:39;99539.20;;;17.19;68.71
65784;BME280;52532;53.358;-1.488;2022-07-25T06:36:42;99543.39;;;17.64;67.16
65784;BME280;52532;53.358;-1.488;2022-07-25T06:39:45;99538.69;;;16.24;72.63
65784;BME280;52532;53.358;-1.488;2022-07-25T06:42:48;99540.89;;;16.56;69.13
65784;BME280;52532;53.358;-1.488;2022-07-25T06:45:51;99543.03;;;16.51;71.26
65784;BME280;52532;53.358;-1.488;2022-07-25T06:48:54;99541.00;;;18.29;67.08
65784;BME280;52532;53.358;-1.488;2022-07-25T06:51:57;99543.24;;;16.83;71.12
65784;BME280;52532;53.358;-1.488;2022-07-25T06:55:00;99547.31;;;16.75;71.37
65784;BME280;52532;53.358;-1.488;2022-07-25T06:58:04;99551.40;;;17.87;68.19
65784;BME280;52532;53.358;-1.488;2022-07-25T07:01:07;99548.85;;;18.01;67.79
65784;BME280;52532;53.358;-1.488;2022-07-25T07:04:09;99559.64;;;15.87;73.87
65784;BME280;52532;53.358;-1.488;2022-07-25T07:07:13;99555.32;;;17.94;68.54
65784;BME280;52532;53.358;-1.488;2022-07-25T07:13:03;99560.28;;;17.59;68.87
65784;BME280;52532;53.358;-1.488;2022-07-25T07:16:07;99565.30;;;17.74;69.27
65784;BME280;52532;53.358;-1.488;2022-07-25T07:19:09;99572.61;;;18.63;65.85
65784;BME280;52532;53.358;-1.488;2022-07-25T07:22:12;99573.99;;;17.83;66.44
65784;BME280;52532;53.358;-1.488;2022-07-25T07:25:17;99577.48;;;18.65;64.80
65784;BME280;52532;53.358;-1.488;2022-07-25T07:28:20;99577.68;;;17.44;71.44
65784;BME280;52532;53.358;-1.488;2022-07-25T07:31:30;99575.86;;;18.50;67.85
65784;BME280;52532;53.358;-1.488;2022-07-25T07:34:38;99579.74;;;17.55;69.22
65784;BME280;52532;53.358;-1.488;2022-07-25T07:40:34;99584.95;;;16.31;75.31
65784;BME280;52532;53.358;-1.488;2022-07-25T07:43:37;99583.72;;;15.65;77.22
65784;BME280;52532;53.358;-1.488;2022-07-25T07:46:40;99586.77;;;18.23;67.82
65784;BME280;52532;53.358;-1.488;2022-07-25T07:49:43;99590.04;;;17.94;66.50
65784;BME280;52532;53.358;-1.488;2022-07-25T07:52:47;99590.02;;;17.95;67.96
65784;BME280;52532;53.358;-1.488;2022-07-25T07:55:51;99592.74;;;18.59;65.87
65784;BME280;52532;53.358;-1.488;2022-07-25T07:58:56;99596.89;;;18.44;65.96
65784;BME280;52532;53.358;-1.488;2022-07-25T08:04:40;99596.19;;;18.52;64.45
65784;BME280;52532;53.358;-1.488;2022-07-25T08:07:43;99597.81;;;17.88;68.00
65784;BME280;52532;53.358;-1.488;2022-07-25T08:10:47;99608.52;;;17.70;68.02
65784;BME280;52532;53.358;-1.488;2022-07-25T08:13:51;99611.31;;;16.71;69.51
65784;BME280;52532;53.358;-1.488;2022-07-25T08:16:54;99618.18;;;18.33;64.84
65784;BME280;52532;53.358;-1.488;2022-07-25T08:19:58;99625.01;;;17.24;66.98
65784;BME280;52532;53.358;-1.488;2022-07-25T08:23:02;99625.90;;;18.80;62.85
65784;BME280;52532;53.358;-1.488;2022-07-25T08:26:05;99626.71;;;18.55;62.44
65784;BME280;52532;53.358;-1.488;2022-07-25T08:29:08;99630.71;;;19.09;63.06
65784;BME280;52532;53.358;-1.488;2022-07-25T08:32:11;99636.88;;;18.48;61.93
65784;BME280;52532;53.358;-1.488;2022-07-25T08:35:15;99636.81;;;17.73;65.16
65784;BME280;52532;53.358;-1.488;2022-07-25T08:38:19;99634.12;;;18.76;62.90
65784;BME280;52532;53.358;-1.488;2022-07-25T08:41:22;99637.47;;;17.80;63.88
65784;BME280;52532;53.358;-1.488;2022-07-25T08:44:27;99642.87;;;17.77;65.60
65784;BME280;52532;53.358;-1.488;2022-07-25T08:47:34;99646.95;;;16.84;69.46
65784;BME280;52532;53.358;-1.488;2022-07-25T08:50:38;99642.19;;;17.68;66.58
65784;BME280;52532;53.358;-1.488;2022-07-25T08:53:41;99637.51;;;18.19;62.34
65784;BME280;52532;53.358;-1.488;2022-07-25T08:56:45;99638.90;;;19.27;60.91
65784;BME280;52532;53.358;-1.488;2022-07-25T08:59:47;99640.29;;;17.10;68.57
65784;BME280;52532;53.358;-1.488;2022-07-25T09:02:51;99643.09;;;19.80;60.24
65784;BME280;52532;53.358;-1.488;2022-07-25T09:05:54;99646.93;;;21.07;56.66
65784;BME280;52532;53.358;-1.488;2022-07-25T09:08:59;99642.16;;;22.60;53.74
65784;BME280;52532;53.358;-1.488;2022-07-25T09:12:02;99638.01;;;20.74;57.94
65784;BME280;52532;53.358;-1.488;2022-07-25T09:15:07;99641.86;;;21.02;56.98
65784;BME280;52532;53.358;-1.488;2022-07-25T09:18:13;99642.84;;;18.57;62.10
65784;BME280;52532;53.358;-1.488;2022-07-25T09:21:16;99646.67;;;19.29;63.00
65784;BME280;52532;53.358;-1.488;2022-07-25T09:24:19;99648.00;;;17.85;64.38
65784;BME280;52532;53.358;-1.488;2022-07-25T09:27:23;99657.06;;;18.71;63.63
65784;BME280;52532;53.358;-1.488;2022-07-25T09:30:26;99655.60;;;18.84;62.74
65784;BME280;52532;53.358;-1.488;2022-07-25T09:33:30;99665.21;;;18.14;64.60
65784;BME280;52532;53.358;-1.488;2022-07-25T09:36:33;99669.65;;;18.58;66.68
65784;BME280;52532;53.358;-1.488;2022-07-25T09:42:34;99681.94;;;17.16;70.60
65784;BME280;52532;53.358;-1.488;2022-07-25T09:45:48;99681.80;;;17.73;68.24
65784;BME280;52532;53.358;-1.488;2022-07-25T09:48:56;99690.63;;;17.22;69.88
65784;BME280;52532;53.358;-1.488;2022-07-25T09:51:59;99689.73;;;18.16;66.46
65784;BME280;52532;53.358;-1.488;2022-07-25T09:55:03;99693.51;;;18.03;69.27
65784;BME280;52532;53.358;-1.488;2022-07-25T09:58:07;99699.33;;;18.23;67.18
65784;BME280;52532;53.358;-1.488;2022-07-25T10:01:15;99699.83;;;18.45;66.65
65784;BME280;52532;53.358;-1.488;2022-07-25T10:04:29;99719.53;;;18.55;66.02
65784;BME280;52532;53.358;-1.488;2022-07-25T10:07:44;99721.25;;;17.89;72.54
65784;BME280;52532;53.358;-1.488;2022-07-25T10:10:51;99726.07;;;18.32;72.55
65784;BME280;52532;53.358;-1.488;2022-07-25T10:13:56;99729.56;;;17.29;77.59
65784;BME280;52532;53.358;-1.488;2022-07-25T10:17:00;99733.28;;;17.13;77.85
65784;BME280;52532;53.358;-1.488;2022-07-25T10:20:06;99739.18;;;16.51;79.54
65784;BME280;52532;53.358;-1.488;2022-07-25T10:23:28;99736.01;;;17.73;75.42
65784;BME280;52532;53.358;-1.488;2022-07-25T10:26:32;99743.05;;;16.86;77.10
65784;BME280;52532;53.358;-1.488;2022-07-25T10:29:37;99740.50;;;17.21;75.10
65784;BME280;52532;53.358;-1.488;2022-07-25T10:32:48;99735.07;;;18.24;74.40
65784;BME280;52532;53.358;-1.488;2022-07-25T10:35:52;99736.33;;;19.22;67.40
65784;BME280;52532;53.358;-1.488;2022-07-25T10:38:56;99743.01;;;19.57;67.02
65784;BME280;52532;53.358;-1.488;2022-07-25T10:42:04;99742.71;;;18.68;68.76
65784;BME280;52532;53.358;-1.488;2022-07-25T10:45:08;99747.90;;;18.74;67.09
65784;BME280;52532;53.358;-1.488;2022-07-25T10:48:20;99751.75;;;18.94;64.61
65784;BME280;52532;53.358;-1.488;2022-07-25T10:51:26;99756.36;;;17.99;67.95
65784;BME280;52532;53.358;-1.488;2022-07-25T10:54:33;99758.13;;;17.61;68.96
65784;BME280;52532;53.358;-1.488;2022-07-25T10:57:36;99761.47;;;18.93;67.44
65784;BME280;52532;53.358;-1.488;2022-07-25T11:00:42;99769.43;;;19.16;66.58
65784;BME280;52532;53.358;-1.488;2022-07-25T11:03:46;99772.34;;;20.06;64.53
65784;BME280;52532;53.358;-1.488;2022-07-25T11:06:49;99785.86;;;20.11;62.48
65784;BME280;52532;53.358;-1.488;2022-07-25T11:09:56;99793.15;;;19.01;68.40
65784;BME280;52532;53.358;-1.488;2022-07-25T11:12:59;99787.76;;;18.33;70.52
65784;BME280;52532;53.358;-1.488;2022-07-25T11:16:02;99785.74;;;18.97;66.71
65784;BME280;52532;53.358;-1.488;2022-07-25T11:19:15;99786.63;;;19.82;63.48
65784;BME280;52532;53.358;-1.488;2022-07-25T11:22:18;99794.59;;;18.88;66.73
65784;BME280;52532;53.358;-1.488;2022-07-25T11:25:22;99790.51;;;19.13;64.55
65784;BME280;52532;53.358;-1.488;2022-07-25T11:28:36;99793.75;;;18.50;68.13
65784;BME280;52532;53.358;-1.488;2022-07-25T11:31:39;99786.25;;;17.61;71.05
65784;BME280;52532;53.358;-1.488;2022-07-25T11:34:45;99791.17;;;18.11;67.82
65784;BME280;52532;53.358;-1.488;2022-07-25T11:37:49;99789.82;;;18.97;66.09
65784;BME280;52532;53.358;-1.488;2022-07-25T11:40:53;99795.11;;;21.00;61.62
65784;BME280;52532;53.358;-1.488;2022-07-25T11:43:56;99792.38;;;20.07;61.08
65784;BME280;52532;53.358;-1.488;2022-07-25T11:46:59;99793.39;;;19.15;62.20
65784;BME280;52532;53.358;-1.488;2022-07-25T11:50:04;99800.40;;;19.41;61.78
65784;BME280;52532;53.358;-1.488;2022-07-25T11:53:09;99803.03;;;19.92;59.02
65784;BME280;52532;53.358;-1.488;2022-07-25T11:56:15;99808.59;;;20.28;57.36
65784;BME280;52532;53.358;-1.488;2022-07-25T11:59:18;99807.01;;;19.74;60.90
65784;BME280;52532;53.358;-1.488;2022-07-25T12:02:22;99803.47;;;19.70;59.39
65784;BME280;52532;53.358;-1.488;2022-07-25T12:05:31;99799.07;;;19.09;60.88
65784;BME280;52532;53.358;-1.488;2022-07-25T12:08:37;99798.92;;;18.78;61.58
65784;BME280;52532;53.358;-1.488;2022-07-25T12:11:41;99808.56;;;19.22;61.57
65784;BME280;52532;53.358;-1.488;2022-07-25T12:14:44;99842.37;;;20.01;59.36
65784;BME280;52532;53.358;-1.488;2022-07-25T12:17:48;99822.16;;;20.94;56.47
65784;BME280;52532;53.358;-1.488;2022-07-25T12:20:56;99835.32;;;20.49;58.07
65784;BME280;52532;53.358;-1.488;2022-07-25T12:23:59;99854.67;;;19.68;58.75
65784;BME280;52532;53.358;-1.488;2022-07-25T12:27:02;99854.66;;;17.83;66.70
65784;BME280;52532;53.358;-1.488;2022-07-25T12:30:11;99867.77;;;19.39;66.82
65784;BME280;52532;53.358;-1.488;2022-07-25T12:33:15;99869.02;;;17.85;66.86
65784;BME280;52532;53.358;-1.488;2022-07-25T12:36:18;99886.13;;;17.08;68.24
65784;BME280;52532;53.358;-1.488;2022-07-25T12:39:21;99889.52;;;17.61;63.38
65784;BME280;52532;53.358;-1.488;2022-07-25T12:42:25;99874.59;;;18.13;62.79
65784;BME280;52532;53.358;-1.488;2022-07-25T12:45:29;99891.04;;;19.23;60.08
65784;BME280;52532;53.358;-1.488;2022-07-25T12:48:32;99897.58;;;19.75;59.42
65784;BME280;52532;53.358;-1.488;2022-07-25T12:51:35;99902.96;;;19.09;60.46
65784;BME280;52532;53.358;-1.488;2022-07-25T12:54:38;99899.25;;;19.78;57.62
65784;BME280;52532;53.358;-1.488;2022-07-25T12:57:42;99912.45;;;19.45;60.23
65784;BME280;52532;53.358;-1.488;2022-07-25T13:00:50;99904.84;;;19.24;61.73
65784;BME280;52532;53.358;-1.488;2022-07-25T13:03:53;99907.61;;;18.60;62.55
65784;BME280;52532;53.358;-1.488;2022-07-25T13:06:56;99903.09;;;19.38;62.87
65784;BME280;52532;53.358;-1.488;2022-07-25T13:09:59;99900.16;;;19.18;61.06
65784;BME280;52532;53.358;-1.488;2022-07-25T13:13:02;99895.61;;;18.67;61.52
65784;BME280;52532;53.358;-1.488;2022-07-25T13:16:05;99908.58;;;19.21;60.13
65784;BME280;52532;53.358;-1.488;2022-07-25T13:19:09;99916.06;;;18.54;62.79
65784;BME280;52532;53.358;-1.488;2022-07-25T13:22:12;99888.86;;;19.17;61.46
65784;BME280;52532;53.358;-1.488;2022-07-25T13:28:06;99924.95;;;18.83;61.55
65784;BME280;52532;53.358;-1.488;2022-07-25T13:31:09;99919.08;;;19.87;57.98
65784;BME280;52532;53.358;-1.488;2022-07-25T13:34:12;99921.61;;;20.90;56.24
65784;BME280;52532;53.358;-1.488;2022-07-25T13:37:15;99925.47;;;19.81;57.54
65784;BME280;52532;53.358;-1.488;2022-07-25T13:40:18;99949.98;;;19.36;59.14
65784;BME280;52532;53.358;-1.488;2022-07-25T13:43:21;99944.17;;;18.97;60.81
65784;BME280;52532;53.358;-1.488;2022-07-25T13:46:24;99938.03;;;19.38;59.62
65784;BME280;52532;53.358;-1.488;2022-07-25T13:49:27;99943.88;;;19.34;60.31
65784;BME280;52532;53.358;-1.488;2022-07-25T13:55:41;99943.61;;;18.29;62.77
65784;BME280;52532;53.358;-1.488;2022-07-25T13:58:44;99942.03;;;19.74;60.91
65784;BME280;52532;53.358;-1.488;2022-07-25T14:01:47;99958.20;;;19.95;56.43
65784;BME280;52532;53.358;-1.488;2022-07-25T14:04:50;99962.56;;;19.42;58.79
65784;BME280;52532;53.358;-1.488;2022-07-25T14:07:53;99964.52;;;19.38;62.23
65784;BME280;52532;53.358;-1.488;2022-07-25T14:10:56;99964.21;;;19.73;58.36
65784;BME280;52532;53.358;-1.488;2022-07-25T14:13:59;99974.74;;;20.38;57.52
65784;BME280;52532;53.358;-1.488;2022-07-25T14:17:02;99972.03;;;20.61;55.78
65784;BME280;52532;53.358;-1.488;2022-07-25T14:20:07;99973.92;;;21.09;55.40
65784;BME280;52532;53.358;-1.488;2022-07-25T14:23:10;99984.37;;;20.17;56.25
65784;BME280;52532;53.358;-1.488;2022-07-25T14:26:13;99988.55;;;20.38;55.42
65784;BME280;52532;53.358;-1.488;2022-07-25T14:29:16;99983.56;;;20.37;55.01
65784;BME280;52532;53.358;-1.488;2022-07-25T14:32:19;99988.01;;;21.27;54.34
65784;BME280;52532;53.358;-1.488;2022-07-25T14:35:22;99989.03;;;19.30;58.24
65784;BME280;52532;53.358;-1.488;2022-07-25T14:38:25;100009.89;;;19.01;57.66
65784;BME280;52532;53.358;-1.488;2022-07-25T14:41:28;99998.77;;;19.48;58.70
65784;BME280;52532;53.358;-1.488;2022-07-25T14:44:31;100000.80;;;18.65;61.44
65784;BME280;52532;53.358;-1.488;2022-07-25T14:47:35;100000.38;;;19.62;60.22
65784;BME280;52532;53.358;-1.488;2022-07-25T14:50:39;99999.82;;;19.42;59.39
65784;BME280;52532;53.358;-1.488;2022-07-25T14:53:42;100008.93;;;21.04;56.13
65784;BME280;52532;53.358;-1.488;2022-07-25T14:56:45;100009.53;;;18.53;62.19
65784;BME280;52532;53.358;-1.488;2022-07-25T14:59:48;100025.54;;;20.16;57.48
65784;BME280;52532;53.358;-1.488;2022-07-25T15:02:51;100009.67;;;20.83;55.09
65784;BME280;52532;53.358;-1.488;2022-07-25T15:05:54;100023.64;;;22.13;52.06
65784;BME280;52532;53.358;-1.488;2022-07-25T15:08:57;100017.59;;;20.75;54.21
65784;BME280;52532;53.358;-1.488;2022-07-25T15:12:00;100040.22;;;20.14;56.65
65784;BME280;52532;53.358;-1.488;2022-07-25T15:15:04;100017.36;;;19.44;59.28
65784;BME280;52532;53.358;-1.488;2022-07-25T15:18:07;100046.32;;;18.98;57.80
65784;BME280;52532;53.358;-1.488;2022-07-25T15:21:35;100037.18;;;20.26;56.97
65784;BME280;52532;53.358;-1.488;2022-07-25T15:24:44;100035.10;;;19.00;60.40
65784;BME280;52532;53.358;-1.488;2022-07-25T15:30:29;100047.51;;;19.24;59.20
65784;BME280;52532;53.358;-1.488;2022-07-25T15:33:45;100054.65;;;20.40;55.95
65784;BME280;52532;53.358;-1.488;2022-07-25T15:37:09;100046.50;;;20.47;55.37
65784;BME280;52532;53.358;-1.488;2022-07-25T15:40:27;100053.44;;;19.59;55.92
65784;BME280;52532;53.358;-1.488;2022-07-25T15:43:43;100051.49;;;19.49;57.10
65784;BME280;52532;53.358;-1.488;2022-07-25T15:47:01;100047.82;;;18.89;56.62
65784;BME280;52532;53.358;-1.488;2022-07-25T15:50:18;100059.18;;;19.59;53.95
65784;BME280;52532;53.358;-1.488;2022-07-25T15:53:31;100050.73;;;19.36;52.31
65784;BME280;52532;53.358;-1.488;2022-07-25T15:56:35;100064.43;;;20.20;52.56
65784;BME280;52532;53.358;-1.488;2022-07-25T15:59:43;100069.65;;;19.48;52.75
65784;BME280;52532;53.358;-1.488;2022-07-25T16:02:46;100088.70;;;19.52;53.58
65784;BME280;52532;53.358;-1.488;2022-07-25T16:05:49;100078.71;;;18.88;53.64
65784;BME280;52532;53.358;-1.488;2022-07-25T16:09:02;100082.80;;;18.15;58.11
65784;BME280;52532;53.358;-1.488;2022-07-25T16:12:16;100083.58;;;19.87;53.01
65784;BME280;52532;53.358;-1.488;2022-07-25T16:15:28;100096.80;;;18.48;54.84
65784;BME280;52532;53.358;-1.488;2022-07-25T16:21:46;100106.75;;;19.76;51.58
65784;BME280;52532;53.358;-1.488;2022-07-25T16:25:05;100097.66;;;20.45;50.63
65784;BME280;52532;53.358;-1.488;2022-07-25T16:28:15;100101.27;;;19.76;51.20